createdAt,value
2018-07-25T00:00:48.836Z,21.10
2018-07-25T00:03:17.123Z,21.10
2018-07-25T00:05:45.417Z,21.10
2018-07-25T00:08:13.694Z,21.00
2018-07-25T00:10:52.076Z,21.00
2018-07-25T00:13:20.522Z,21.00
2018-07-25T00:15:48.782Z,20.90
2018-07-25T00:18:17.010Z,20.90
2018-07-25T00:20:45.291Z,20.90
2018-07-25T00:23:13.486Z,20.80
2018-07-25T00:25:41.721Z,20.80
2018-07-25T00:28:09.977Z,20.60
2018-07-25T00:30:38.181Z,20.50
2018-07-25T00:33:06.430Z,20.40
2018-07-25T00:35:34.772Z,20.40
2018-07-25T00:38:03.007Z,20.40
2018-07-25T00:42:59.168Z,20.50
2018-07-25T00:45:27.345Z,20.40
2018-07-25T00:47:55.549Z,20.40
2018-07-25T00:50:23.849Z,20.40
2018-07-25T00:52:52.022Z,20.30
2018-07-25T00:55:20.269Z,20.30
2018-07-25T00:57:48.473Z,20.20
2018-07-25T01:00:17.982Z,20.20
2018-07-25T01:02:46.688Z,20.20
2018-07-25T01:05:15.119Z,20.20
2018-07-25T01:07:43.466Z,20.30
2018-07-25T01:10:11.695Z,20.20
2018-07-25T01:12:39.914Z,20.20
2018-07-25T01:15:08.614Z,20.20
2018-07-25T01:17:36.890Z,20.20
2018-07-25T01:20:05.381Z,20.10
2018-07-25T01:22:33.717Z,20.00
2018-07-25T01:25:02.556Z,20.00
2018-07-25T01:27:30.777Z,19.90
2018-07-25T01:29:59.003Z,19.90
2018-07-25T01:32:27.290Z,19.90
2018-07-25T01:34:55.506Z,20.00
2018-07-25T01:37:23.713Z,20.10
2018-07-25T01:39:52.005Z,20.20
2018-07-25T01:44:48.456Z,20.40
2018-07-25T01:47:16.744Z,20.40
2018-07-25T01:49:44.977Z,20.40
2018-07-25T01:52:13.186Z,20.40
2018-07-25T01:54:41.450Z,20.40
2018-07-25T01:57:10.093Z,20.40
2018-07-25T01:59:38.319Z,20.20
2018-07-25T02:02:07.106Z,20.20
2018-07-25T02:04:35.345Z,20.20
2018-07-25T02:07:03.582Z,20.30
2018-07-25T02:09:31.833Z,20.20
2018-07-25T02:12:00.068Z,20.20
2018-07-25T02:14:28.290Z,20.10
2018-07-25T02:16:56.554Z,20.00
2018-07-25T02:19:24.778Z,19.90
2018-07-25T02:21:53.043Z,19.80
2018-07-25T02:24:21.293Z,19.70
2018-07-25T02:26:49.581Z,19.80
2018-07-25T02:29:17.830Z,19.80
2018-07-25T02:31:46.020Z,19.90
2018-07-25T02:34:21.010Z,19.90
2018-07-25T02:36:50.139Z,19.90
2018-07-25T02:39:18.412Z,19.80
2018-07-25T02:41:46.635Z,19.80
2018-07-25T02:44:15.252Z,19.80
2018-07-25T02:46:43.604Z,19.80
2018-07-25T02:49:11.854Z,19.80
2018-07-25T02:51:40.107Z,19.70
2018-07-25T02:54:08.690Z,19.70
2018-07-25T02:56:36.967Z,19.60
2018-07-25T02:59:06.265Z,19.50
2018-07-25T03:01:34.912Z,19.40
2018-07-25T03:04:03.422Z,19.30
2018-07-25T03:06:31.666Z,19.30
2018-07-25T03:08:59.982Z,19.30
2018-07-25T03:11:28.200Z,19.20
2018-07-25T03:13:56.492Z,19.20
2018-07-25T03:16:24.770Z,19.10
2018-07-25T03:18:52.995Z,19.10
2018-07-25T03:21:21.274Z,19.10
2018-07-25T03:23:49.839Z,19.20
2018-07-25T03:26:18.082Z,19.30
2018-07-25T03:28:46.371Z,19.40
2018-07-25T03:31:14.678Z,19.40
2018-07-25T03:33:42.969Z,19.50
2018-07-25T03:36:11.467Z,19.50
2018-07-25T03:38:39.710Z,19.50
2018-07-25T03:41:07.986Z,19.60
2018-07-25T03:43:36.264Z,19.60
2018-07-25T03:46:04.578Z,19.60
2018-07-25T03:48:32.838Z,19.60
2018-07-25T03:51:01.084Z,19.60
2018-07-25T03:53:29.788Z,19.50
2018-07-25T03:55:58.057Z,19.50
2018-07-25T03:58:26.331Z,19.50
2018-07-25T04:00:54.589Z,19.40
2018-07-25T04:03:22.864Z,19.30
2018-07-25T04:05:51.165Z,19.30
2018-07-25T04:08:19.413Z,19.20
2018-07-25T04:10:48.306Z,19.20
2018-07-25T04:13:17.130Z,19.30
2018-07-25T04:15:45.408Z,19.30
2018-07-25T04:18:13.655Z,19.40
2018-07-25T04:20:42.030Z,19.40
2018-07-25T04:23:10.218Z,19.30
2018-07-25T04:25:38.494Z,19.30
2018-07-25T04:28:06.751Z,19.30
2018-07-25T04:30:34.978Z,19.20
2018-07-25T04:33:03.182Z,19.30
2018-07-25T04:35:31.450Z,19.40
2018-07-25T04:37:59.665Z,19.50
2018-07-25T04:40:27.898Z,19.50
2018-07-25T04:42:56.139Z,19.60
2018-07-25T04:45:24.378Z,19.70
2018-07-25T04:47:52.630Z,19.80
2018-07-25T04:50:20.842Z,19.80
2018-07-25T04:52:49.105Z,19.90
2018-07-25T04:55:17.360Z,19.90
2018-07-25T04:57:45.533Z,20.00
2018-07-25T05:00:13.754Z,20.00
2018-07-25T05:02:42.016Z,20.10
2018-07-25T05:05:10.256Z,20.10
2018-07-25T05:07:38.458Z,20.20
2018-07-25T05:10:06.660Z,20.20
2018-07-25T05:12:36.969Z,20.30
2018-07-25T05:15:06.047Z,20.30
2018-07-25T05:17:34.286Z,20.50
2018-07-25T05:20:02.499Z,20.50
2018-07-25T05:22:30.728Z,20.60
2018-07-25T05:24:59.797Z,20.70
2018-07-25T05:27:28.131Z,20.80
2018-07-25T05:29:56.342Z,21.00
2018-07-25T05:32:25.617Z,21.10
2018-07-25T05:34:53.898Z,21.30
2018-07-25T05:37:22.182Z,21.60
2018-07-25T05:39:50.552Z,21.70
2018-07-25T05:42:18.836Z,21.90
2018-07-25T05:44:47.208Z,22.30
2018-07-25T05:47:15.489Z,22.60
2018-07-25T05:49:43.753Z,22.80
2018-07-25T05:52:13.066Z,23.00
2018-07-25T05:54:41.954Z,23.30
2018-07-25T05:57:10.236Z,23.70
2018-07-25T05:59:38.487Z,24.00
2018-07-25T06:02:06.876Z,24.30
2018-07-25T06:04:35.198Z,24.60
2018-07-25T06:07:04.532Z,24.80
2018-07-25T06:09:32.923Z,25.10
2018-07-25T06:12:01.184Z,25.40
2018-07-25T06:14:29.511Z,25.80
2018-07-25T06:16:57.779Z,26.00
2018-07-25T06:19:26.038Z,26.30
2018-07-25T06:21:54.310Z,26.40
2018-07-25T06:24:22.602Z,26.50
2018-07-25T06:26:50.870Z,26.70
2018-07-25T06:29:19.556Z,26.90
2018-07-25T06:31:47.810Z,27.10
2018-07-25T06:34:16.117Z,27.50
2018-07-25T06:36:44.303Z,27.70
2018-07-25T06:39:13.482Z,27.90
2018-07-25T06:41:41.769Z,28.10
2018-07-25T06:44:10.522Z,28.20
2018-07-25T06:46:39.035Z,28.40
2018-07-25T06:49:08.834Z,28.60
2018-07-25T06:51:37.186Z,28.80
2018-07-25T06:54:05.561Z,29.00
2018-07-25T06:56:33.874Z,29.40
2018-07-25T06:59:02.147Z,29.70
2018-07-25T07:01:30.409Z,30.00
2018-07-25T07:03:58.694Z,30.00
2018-07-25T07:06:27.019Z,30.20
2018-07-25T07:08:55.519Z,30.30
2018-07-25T07:11:23.834Z,30.60
2018-07-25T07:13:52.221Z,30.80
2018-07-25T07:16:20.455Z,31.10
2018-07-25T07:18:48.664Z,31.50
2018-07-25T07:21:16.933Z,31.70
2018-07-25T07:23:45.241Z,31.90
2018-07-25T07:26:13.504Z,32.00
2018-07-25T07:28:41.850Z,31.90
2018-07-25T07:31:10.123Z,32.00
2018-07-25T07:33:38.331Z,32.20
2018-07-25T07:36:07.518Z,32.40
2018-07-25T07:38:35.850Z,32.30
2018-07-25T07:41:04.122Z,32.20
2018-07-25T07:43:32.522Z,32.40
2018-07-25T07:46:00.815Z,32.70
2018-07-25T07:48:29.077Z,32.70
2018-07-25T07:50:57.365Z,32.60
2018-07-25T07:53:26.442Z,32.80
2018-07-25T07:55:54.700Z,33.00
2018-07-25T07:58:22.925Z,33.10
2018-07-25T08:00:51.290Z,33.60
2018-07-25T08:03:19.530Z,33.70
2018-07-25T08:05:47.737Z,33.60
2018-07-25T08:08:16.061Z,33.40
2018-07-25T08:10:44.330Z,33.60
2018-07-25T08:13:12.667Z,33.90
2018-07-25T08:18:08.914Z,33.90
2018-07-25T08:20:37.190Z,34.10
2018-07-25T08:23:05.470Z,34.20
2018-07-25T08:25:34.185Z,34.10
2018-07-25T08:28:02.403Z,34.20
2018-07-25T08:30:30.706Z,34.30
2018-07-25T08:32:58.981Z,34.60
2018-07-25T08:35:27.262Z,34.50
2018-07-25T08:37:55.506Z,34.60
2018-07-25T08:40:23.802Z,34.50
2018-07-25T08:42:52.589Z,34.90
2018-07-25T08:45:20.805Z,35.20
2018-07-25T08:47:49.025Z,35.00
2018-07-25T08:50:17.285Z,34.80
2018-07-25T08:52:45.606Z,34.80
2018-07-25T08:55:13.754Z,35.00
2018-07-25T08:57:41.976Z,35.10
2018-07-25T09:00:10.256Z,35.00
2018-07-25T09:02:38.463Z,35.00
2018-07-25T09:05:06.962Z,34.90
2018-07-25T09:07:35.217Z,35.10
2018-07-25T09:10:03.453Z,35.30
2018-07-25T09:12:31.677Z,35.60
2018-07-25T09:14:59.914Z,35.80
2018-07-25T09:17:28.154Z,36.00
2018-07-25T09:19:56.647Z,36.00
2018-07-25T09:22:24.809Z,36.30
2018-07-25T09:24:53.158Z,36.20
2018-07-25T09:27:21.687Z,36.40
2018-07-25T09:29:49.958Z,36.20
2018-07-25T09:32:18.204Z,36.40
2018-07-25T09:34:46.466Z,36.10
2018-07-25T09:37:14.700Z,35.90
2018-07-25T09:39:43.708Z,36.20
2018-07-25T09:42:11.936Z,35.60
2018-07-25T09:44:40.409Z,35.30
2018-07-25T09:47:08.882Z,35.70
2018-07-25T09:49:36.978Z,36.00
2018-07-25T09:52:05.234Z,35.90
2018-07-25T09:54:33.418Z,35.40
2018-07-25T09:57:01.709Z,34.90
2018-07-25T09:59:31.127Z,35.20
2018-07-25T10:01:59.708Z,35.00
2018-07-25T10:04:28.095Z,34.30
2018-07-25T10:06:56.328Z,34.90
2018-07-25T10:09:24.591Z,34.70
2018-07-25T10:11:52.797Z,34.70
2018-07-25T10:14:21.180Z,34.90
2018-07-25T10:16:49.402Z,35.00
2018-07-25T10:19:17.594Z,32.80
2018-07-25T10:21:45.896Z,32.10
2018-07-25T10:24:14.206Z,31.60
2018-07-25T10:26:44.790Z,31.50
2018-07-25T10:29:14.928Z,31.30
2018-07-25T10:31:43.259Z,32.30
2018-07-25T10:34:12.268Z,33.30
2018-07-25T10:36:40.471Z,33.80
2018-07-25T10:39:09.639Z,34.50
2018-07-25T10:41:37.890Z,34.80
2018-07-25T10:44:06.475Z,34.80
2018-07-25T10:46:34.731Z,35.10
2018-07-25T10:49:03.668Z,35.20
2018-07-25T10:51:31.990Z,35.50
2018-07-25T10:54:00.194Z,35.40
2018-07-25T10:56:28.676Z,34.80
2018-07-25T10:58:56.884Z,33.50
2018-07-25T11:01:25.171Z,33.70
2018-07-25T11:03:53.580Z,33.60
2018-07-25T11:06:22.598Z,33.20
2018-07-25T11:08:50.846Z,32.80
2018-07-25T11:11:19.072Z,32.50
2018-07-25T11:13:47.342Z,31.90
2018-07-25T11:16:15.740Z,31.80
2018-07-25T11:18:44.137Z,31.70
2018-07-25T11:21:12.424Z,31.60
2018-07-25T11:23:41.809Z,31.50
2018-07-25T11:26:10.195Z,31.50
2018-07-25T11:28:38.542Z,31.50
2018-07-25T11:31:07.258Z,31.40
2018-07-25T11:33:35.611Z,30.70
2018-07-25T11:36:04.182Z,30.60
2018-07-25T11:38:33.174Z,30.70
2018-07-25T11:41:01.740Z,30.80
2018-07-25T11:43:30.038Z,30.80
2018-07-25T11:45:58.342Z,30.80
2018-07-25T11:48:26.722Z,30.80
2018-07-25T11:50:54.939Z,30.60
2018-07-25T11:53:23.251Z,30.60
2018-07-25T11:55:51.494Z,30.70
2018-07-25T11:58:19.766Z,30.60
2018-07-25T12:00:49.081Z,30.70
2018-07-25T12:03:17.311Z,30.70
2018-07-25T12:05:45.624Z,30.50
2018-07-25T12:08:13.874Z,30.30
2018-07-25T12:10:42.233Z,30.20
2018-07-25T12:13:10.521Z,30.10
2018-07-25T12:15:38.890Z,30.30
2018-07-25T12:18:07.237Z,30.40
2018-07-25T12:20:35.485Z,30.50
2018-07-25T12:23:03.777Z,30.70
2018-07-25T12:25:32.018Z,30.90
2018-07-25T12:28:00.238Z,30.90
2018-07-25T12:30:28.538Z,30.90
2018-07-25T12:32:56.790Z,30.80
2018-07-25T12:35:25.070Z,30.60
2018-07-25T12:37:53.346Z,30.40
2018-07-25T12:40:21.648Z,30.10
2018-07-25T12:42:50.121Z,30.00
2018-07-25T12:45:18.278Z,30.10
2018-07-25T12:47:46.561Z,30.20
2018-07-25T12:50:14.832Z,30.10
2018-07-25T12:52:43.042Z,30.20
2018-07-25T12:55:11.275Z,30.30
2018-07-25T12:57:39.482Z,30.40
2018-07-25T13:00:08.353Z,30.50
2018-07-25T13:02:36.603Z,30.70
2018-07-25T13:05:05.587Z,30.90
2018-07-25T13:07:34.054Z,30.90
2018-07-25T13:10:02.277Z,31.10
2018-07-25T13:12:30.508Z,31.20
2018-07-25T13:14:58.734Z,31.40
2018-07-25T13:17:27.004Z,31.50
2018-07-25T13:19:55.241Z,31.30
2018-07-25T13:22:23.613Z,31.30
2018-07-25T13:24:51.900Z,31.20
2018-07-25T13:27:20.116Z,31.10
2018-07-25T13:29:48.342Z,31.20
2018-07-25T13:32:16.572Z,31.30
2018-07-25T13:34:44.895Z,30.80
2018-07-25T13:37:13.237Z,30.40
2018-07-25T13:39:41.421Z,30.40
2018-07-25T13:42:09.720Z,30.40
2018-07-25T13:44:38.054Z,30.50
2018-07-25T13:47:06.326Z,30.60
2018-07-25T13:52:02.588Z,30.90
2018-07-25T13:54:30.858Z,31.00
2018-07-25T13:56:59.086Z,31.10
2018-07-25T13:59:27.351Z,30.90
2018-07-25T14:01:55.582Z,31.00
2018-07-25T14:04:23.773Z,30.90
2018-07-25T14:06:52.015Z,30.80
2018-07-25T14:09:20.204Z,31.00
2018-07-25T14:11:48.488Z,31.10
2018-07-25T14:14:16.712Z,31.20
2018-07-25T14:16:44.914Z,31.40
2018-07-25T14:19:13.143Z,31.30
2018-07-25T14:21:41.398Z,31.10
2018-07-25T14:24:09.851Z,31.00
2018-07-25T14:26:37.923Z,31.10
2018-07-25T14:29:06.155Z,31.10
2018-07-25T14:31:34.395Z,31.20
2018-07-25T14:34:03.730Z,31.20
2018-07-25T14:36:32.030Z,30.90
2018-07-25T14:39:00.299Z,30.80
2018-07-25T14:41:28.479Z,30.90
2018-07-25T14:43:56.725Z,30.90
2018-07-25T14:46:25.248Z,30.90
2018-07-25T14:48:53.599Z,30.60
2018-07-25T14:51:21.886Z,30.60
2018-07-25T14:53:50.231Z,30.70
2018-07-25T14:56:18.417Z,30.80
2018-07-25T14:58:46.609Z,30.90
2018-07-25T15:01:15.692Z,31.00
2018-07-25T15:03:45.847Z,31.00
2018-07-25T15:06:14.100Z,31.10
2018-07-25T15:08:42.373Z,31.20
2018-07-25T15:11:15.486Z,31.20
2018-07-25T15:13:43.814Z,31.20
2018-07-25T15:16:12.035Z,31.10
2018-07-25T15:18:40.303Z,31.10
2018-07-25T15:21:08.768Z,31.00
2018-07-25T15:23:48.456Z,30.90
2018-07-25T15:26:16.778Z,30.80
2018-07-25T15:28:46.474Z,30.80
2018-07-25T15:31:14.797Z,30.90
2018-07-25T15:33:43.182Z,31.00
2018-07-25T15:36:16.794Z,31.00
2018-07-25T15:38:45.516Z,30.80
2018-07-25T15:43:41.694Z,31.00
2018-07-25T15:46:10.552Z,31.10
2018-07-25T15:48:38.775Z,31.20
2018-07-25T15:51:07.726Z,31.30
2018-07-25T15:53:35.938Z,31.30
2018-07-25T15:56:04.164Z,31.20
2018-07-25T15:58:32.394Z,31.10
2018-07-25T16:01:00.620Z,31.20
2018-07-25T16:03:28.812Z,31.20
2018-07-25T16:05:57.010Z,31.30
2018-07-25T16:08:25.277Z,31.10
2018-07-25T16:10:53.548Z,31.10
2018-07-25T16:13:21.784Z,31.20
2018-07-25T16:15:49.989Z,31.30
2018-07-25T16:20:46.146Z,31.50
2018-07-25T16:23:14.482Z,31.70
2018-07-25T16:25:42.655Z,31.80
2018-07-25T16:28:10.892Z,31.90
2018-07-25T16:30:39.153Z,32.10
2018-07-25T16:33:07.402Z,32.10
2018-07-25T16:35:35.699Z,32.30
2018-07-25T16:38:04.038Z,32.10
2018-07-25T16:40:32.212Z,32.10
2018-07-25T16:43:00.438Z,31.70
2018-07-25T16:45:28.760Z,31.50
2018-07-25T16:47:56.958Z,31.70
2018-07-25T16:50:27.183Z,31.50
2018-07-25T16:52:55.394Z,30.90
2018-07-25T16:55:23.556Z,30.40
2018-07-25T16:57:52.126Z,30.10
2018-07-25T17:00:20.401Z,29.50
2018-07-25T17:02:48.686Z,29.10
2018-07-25T17:05:17.390Z,28.60
2018-07-25T17:07:45.586Z,28.40
2018-07-25T17:10:13.832Z,28.10
2018-07-25T17:12:42.850Z,28.10
2018-07-25T17:15:11.334Z,27.80
2018-07-25T17:17:39.750Z,26.80
2018-07-25T17:20:08.049Z,26.10
2018-07-25T17:22:36.350Z,25.70
2018-07-25T17:25:04.630Z,25.20
2018-07-25T17:27:32.876Z,24.90
2018-07-25T17:30:01.070Z,24.70
2018-07-25T17:32:29.261Z,24.70
2018-07-25T17:34:57.518Z,24.80
2018-07-25T17:37:25.783Z,24.80
2018-07-25T17:39:54.058Z,24.60
2018-07-25T17:42:22.250Z,24.60
2018-07-25T17:44:50.478Z,24.80
2018-07-25T17:47:18.645Z,25.10
2018-07-25T17:49:46.858Z,25.20
2018-07-25T17:52:15.207Z,25.10
2018-07-25T17:54:43.407Z,25.10
2018-07-25T17:57:11.665Z,25.20
2018-07-25T17:59:39.864Z,25.20
2018-07-25T18:02:08.098Z,25.20
2018-07-25T18:04:36.314Z,25.30
2018-07-25T18:07:04.584Z,25.40
2018-07-25T18:09:32.879Z,25.60
2018-07-25T18:12:01.751Z,25.70
2018-07-25T18:14:30.031Z,25.70
2018-07-25T18:16:58.263Z,25.70
2018-07-25T18:19:26.501Z,25.70
2018-07-25T18:21:54.746Z,25.80
2018-07-25T18:24:22.937Z,25.80
2018-07-25T18:26:51.386Z,25.90
2018-07-25T18:29:19.751Z,26.00
2018-07-25T18:31:47.924Z,26.10
2018-07-25T18:34:16.149Z,26.10
2018-07-25T18:36:44.408Z,26.20
2018-07-25T18:39:12.981Z,26.10
2018-07-25T18:41:41.361Z,26.20
2018-07-25T18:44:10.035Z,26.10
2018-07-25T18:46:38.341Z,26.10
2018-07-25T18:49:06.610Z,26.10
2018-07-25T18:51:34.891Z,26.10
2018-07-25T18:54:03.538Z,26.10
2018-07-25T18:56:31.755Z,26.00
2018-07-25T18:58:59.992Z,26.00
2018-07-25T19:01:28.173Z,25.90
2018-07-25T19:03:56.670Z,25.90
2018-07-25T19:06:24.946Z,25.80
2018-07-25T19:08:53.304Z,25.80
2018-07-25T19:11:21.497Z,25.60
2018-07-25T19:13:55.158Z,25.20
2018-07-25T19:16:23.388Z,25.10
2018-07-25T19:18:51.638Z,25.00
2018-07-25T19:21:20.855Z,25.00
2018-07-25T19:23:49.033Z,25.10
2018-07-25T19:26:17.219Z,25.20
2018-07-25T19:28:45.482Z,25.20
2018-07-25T19:31:13.749Z,25.30
2018-07-25T19:33:41.973Z,25.30
2018-07-25T19:36:10.166Z,25.40
2018-07-25T19:38:38.497Z,25.50
2018-07-25T19:41:06.799Z,25.60
2018-07-25T19:43:34.998Z,25.50
2018-07-25T19:46:03.376Z,25.50
2018-07-25T19:48:32.505Z,25.50
2018-07-25T19:51:00.735Z,25.50
2018-07-25T19:53:29.768Z,25.50
2018-07-25T19:55:58.037Z,25.60
2018-07-25T19:58:26.321Z,25.50
2018-07-25T20:00:54.704Z,25.50
2018-07-25T20:03:22.962Z,25.40
2018-07-25T20:05:51.252Z,25.40
2018-07-25T20:08:19.472Z,25.40
2018-07-25T20:10:47.702Z,25.40
2018-07-25T20:13:15.926Z,25.40
2018-07-25T20:16:01.836Z,25.20
2018-07-25T20:18:30.639Z,25.00
2018-07-25T20:20:58.882Z,24.90
2018-07-25T20:23:28.006Z,24.90
2018-07-25T20:25:56.214Z,24.80
2018-07-25T20:28:24.483Z,24.80
2018-07-25T20:30:52.726Z,24.70
2018-07-25T20:33:20.932Z,24.70
2018-07-25T20:35:49.235Z,24.70
2018-07-25T20:40:45.455Z,24.50
2018-07-25T20:43:13.708Z,24.60
2018-07-25T20:45:42.012Z,24.60
2018-07-25T20:48:10.285Z,24.50
2018-07-25T20:50:38.570Z,24.50
2018-07-25T20:53:07.061Z,24.50
2018-07-25T20:55:35.389Z,24.50
2018-07-25T20:58:03.675Z,24.50
2018-07-25T21:00:35.067Z,24.40
2018-07-25T21:03:06.083Z,24.30
2018-07-25T21:05:34.413Z,24.30
2018-07-25T21:08:02.711Z,24.30
2018-07-25T21:10:30.984Z,24.30
2018-07-25T21:12:59.281Z,24.30
2018-07-25T21:15:27.526Z,24.40
2018-07-25T21:17:55.714Z,24.30
2018-07-25T21:22:55.547Z,24.40
2018-07-25T21:25:23.843Z,24.40
2018-07-25T21:30:19.973Z,24.50
2018-07-25T21:32:48.199Z,24.40
2018-07-25T21:35:16.394Z,24.40
2018-07-25T21:37:44.669Z,24.30
2018-07-25T21:40:12.942Z,24.30
2018-07-25T21:42:41.138Z,24.20
2018-07-25T21:45:09.306Z,24.10
2018-07-25T21:47:37.574Z,24.00
2018-07-25T21:50:05.878Z,24.00
2018-07-25T21:52:34.099Z,24.00
2018-07-25T21:55:02.348Z,24.00
2018-07-25T21:57:30.602Z,24.00
2018-07-25T21:59:58.929Z,23.90
2018-07-25T22:02:27.143Z,23.70
2018-07-25T22:07:23.354Z,23.50
2018-07-25T22:09:51.523Z,23.50
2018-07-25T22:12:19.702Z,23.40
2018-07-25T22:14:47.912Z,23.40
2018-07-25T22:17:16.090Z,23.40
2018-07-25T22:19:44.343Z,23.30
2018-07-25T22:22:12.525Z,23.20
2018-07-25T22:24:40.819Z,23.00
2018-07-25T22:29:37.033Z,22.90
2018-07-25T22:32:05.906Z,23.00
2018-07-25T22:34:34.110Z,23.00
2018-07-25T22:37:02.352Z,22.90
2018-07-25T22:39:30.578Z,22.90
2018-07-25T22:41:58.805Z,22.80
2018-07-25T22:44:27.329Z,22.80
2018-07-25T22:46:55.661Z,22.80
2018-07-25T22:49:23.901Z,22.80
2018-07-25T22:51:52.131Z,22.80
2018-07-25T22:54:20.371Z,22.90
2018-07-25T22:56:48.594Z,22.90
2018-07-25T22:59:17.169Z,22.90
2018-07-25T23:01:45.353Z,22.80
2018-07-25T23:04:13.978Z,22.90
2018-07-25T23:06:42.210Z,22.80
2018-07-25T23:09:11.302Z,22.80
2018-07-25T23:11:39.956Z,22.70
2018-07-25T23:14:08.183Z,22.50
2018-07-25T23:16:36.426Z,22.30
2018-07-25T23:19:04.618Z,22.10
2018-07-25T23:21:32.865Z,22.10
2018-07-25T23:24:01.097Z,22.10
2018-07-25T23:26:29.320Z,22.10
2018-07-25T23:28:57.514Z,22.10
2018-07-25T23:31:25.722Z,22.10
2018-07-25T23:33:53.942Z,22.10
2018-07-25T23:36:22.125Z,22.10
2018-07-25T23:38:50.377Z,22.20
2018-07-25T23:41:18.551Z,22.20
2018-07-25T23:43:46.869Z,22.10
2018-07-25T23:46:15.065Z,22.00
2018-07-25T23:48:43.324Z,22.00
2018-07-25T23:51:11.524Z,22.00
2018-07-25T23:53:39.725Z,22.00
2018-07-25T23:56:07.933Z,21.90
2018-07-25T23:58:36.150Z,21.90
